Owensboro, KY

5:40 PM CST on February 06, 2016 (GMT -0600)
Owensboro-Daviess County | | Change Station
CLOSE
Current Station
Airport
Location: Owensboro,
Elevation: 407 ft
Nearby Weather Stations
Active Advisory: Flood Warning

Elev 407 ft 37.74 °N, 87.17 °W | Updated 44 minutes ago

Clear
Clear
50 °F
Feels Like 50 °F
N
6
Wind Variable Wind from West

Today
High -- | Low -- °F
--% Chance of Precip.
Yesterday
High -- | Low -- °F
Precip. -- in
Pressure 30.27 in
Visibility 10.0 miles
Clouds Clear
Dew Point 28 °F
Humidity 43%
Rainfall 0.00 in
Snow Depth Not available.
6:48 AM 5:17 PM
Waning Crescent, 3% visible
METAR KOWB 062256Z 27005KT 10SM CLR 10/M02 A3027 RMK AO2 T01001022 SLP251
Pressure 30.27 in
Visibility 10.0 miles
Clouds Clear
Dew Point 28 °F
Humidity 43%
Rainfall 0.00 in
Snow Depth Not available.
6:48 AM 5:17 PM
Waning Crescent, 3% visible
METAR KOWB 062256Z 27005KT 10SM CLR 10/M02 A3027 RMK AO2 T01001022 SLP251

10-Day Weather Forecast

Almanac

Astronomy

Feb. 06, 2016 Rise Set
Actual Time
Civil Twilight
Nautical Twilight
Astronomical Twilight
Moon
Length of Visible Light
Length of Day
Tomorrow will be .
, % of the Moon is Illuminated

Today's Extremes

State Highs State Lows

Community

WunderPhotos

Upload Photos

1,891,098 photos uploaded!

WunderBlog® & News

Nearby

Air Quality

  Air Quality AQ Index Pollutant
Not available.

Snow Depth

Station Depth Elevation

Earthquake Activity

City Distance Mag. Time & Date
Minimum magnitude displayed is 2.5.

Coastal Water Temperatures

Place Temperature

Stations

Nearby Weather Stations

Station Location Temp. Windchill Dew Point Humidity Wind Precip. Elev Updated Type
                   

Watches & Warnings

Flood Warning
Issued: 11:35 AM CST Feb. 6, 2016 – National Weather Service

The Flood Warning continues for
the Ohio River at Newburgh dam.
* Until Tuesday evening.
* At 11:00 am Saturday the stage was 38.2 feet.
* Flood stage is 38.0 feet.
* Minor flooding is occurring and minor flooding is forecast.
* Forecast... the river will continue rising to near 39.1 feet by
tomorrow evening.
* Impact... at 38.0 feet... minor flooding occurs. The river is 2500
feet wide and begins covering agricultural land on the Kentucky
side.


Lat... Lon 3801 8745 3787 8745 3780 8728 3790 8721